Terminal Aerodrome Forecast
Issued by NWS

Home | Current Version | Previous Version | Text Only | Print | Product List | Glossary On
Versions: 1 2 3 4 5 6 7 8 9 10 11 12 13 14 15 16 17
000
FTUS43 KJKL 291739
TAFSJS
TAF
KSJS 291739Z 2918/3018 VRB03KT P6SM VCTS BKN004 OVC010CB
     FM292300 VRB03KT P6SM VCTS BKN020CB
     FM300200 00000KT P6SM VCSH SCT008 BKN015
     FM301000 00000KT 3SM BR BKN008
     FM301300 VRB04KT P6SM SCT015 BKN035=

USA.gov is the U.S. government's official web portal to all federal, state and local government web resources and services.